»·PEaware :: BEE185 KDEN-KBFF

BEE185 :: KDEN-KBFF

FLIGHT INFORMATION

Flight Status: Arrived
Operator:
Flybe
More flights by this operator :: More flights under this callsign
Pilot: Andrew Northall (12823)
Aircraft: BEECH AIRCRAFT BEECH AIRLINER
(B190)
More flights by this aircraft type
Origin: KDEN Denver Intl
United States
Destination: KBFF Heilig
United States
More flights between these airports :: More routes between these airports
Route: YOKES5 BFF
File this flight plan on PilotEdge
Remarks:
Altitude:
(Current/Filed)
17,000ft
Speed:
(Current/Filed)
200kts
Departed: 11-Jan-17 10:18 AM
Arrived: 11-Jan-17 11:10 AM
Distance/Time
Traveled:
138nm/0:52
Distance/Time
To Go:
Arrived

Flight Plot

Page will automatically refresh every two minutes.

Flight plan parsing failed; only flown route is shown


Map Options




Map Legend


Flown Route
Filed Route
Departure Airport
Arrival Airport
Navaid (VOR, NDB)
Fix

Horizontal Profiles

Position Reports

Time Latitude Longitude Heading Altitude Ground
Speed
11-Jan-17 10:01 39.865251 -104.678532 208 5322ft 0kts
11-Jan-17 10:02 39.865251 -104.678532 208 5322ft 0kts
11-Jan-17 10:03 39.865251 -104.678532 208 5322ft 0kts
11-Jan-17 10:04 39.865251 -104.678532 208 5322ft 0kts
11-Jan-17 10:05 39.865251 -104.678532 208 5322ft 0kts
11-Jan-17 10:06 39.865251 -104.678532 208 5322ft 0kts
11-Jan-17 10:07 39.865251 -104.678532 208 5322ft 0kts
11-Jan-17 10:08 39.865251 -104.678532 208 5322ft 0kts
11-Jan-17 10:09 39.865251 -104.678532 208 5322ft 0kts
11-Jan-17 10:10 39.865251 -104.678532 208 5322ft 0kts
11-Jan-17 10:11 39.865035 -104.677556 98 5322ft 18kts
11-Jan-17 10:12 39.864599 -104.670454 86 5322ft 20kts
11-Jan-17 10:13 39.864999 -104.662774 90 5322ft 16kts
11-Jan-17 10:14 39.870895 -104.662208 359 5322ft 30kts
11-Jan-17 10:15 39.876491 -104.662103 358 5322ft 0kts
11-Jan-17 10:16 39.876491 -104.662103 358 5322ft 0kts
11-Jan-17 10:17 39.877541 -104.660889 90 5322ft 26kts
11-Jan-17 10:18 39.877186 -104.602766 92 6684ft 205kts
11-Jan-17 10:19 39.890107 -104.527488 76 8700ft 220kts
11-Jan-17 10:20 39.905978 -104.450229 76 10706ft 223kts
11-Jan-17 10:21 39.949765 -104.398266 31 12704ft 217kts
11-Jan-17 10:22 40.004219 -104.378029 343 14717ft 200kts
11-Jan-17 10:23 39.872578 -104.665794 270 5322ft 0kts
11-Jan-17 10:24 39.872583 -104.665791 252 5322ft 0kts
11-Jan-17 10:25 39.872583 -104.665791 252 5322ft 0kts
11-Jan-17 10:26 39.872583 -104.665791 252 5322ft 0kts
11-Jan-17 10:27 39.872583 -104.665791 252 5322ft 0kts
11-Jan-17 10:28 39.872551 -104.665908 248 5322ft 3kts
11-Jan-17 10:29 39.871284 -104.667382 182 5322ft 0kts
11-Jan-17 10:30 39.873807 -104.663294 1 5322ft 25kts
11-Jan-17 10:31 39.876490 -104.662152 0 5322ft 1kts
11-Jan-17 10:32 39.877702 -104.633023 90 5770ft 187kts
11-Jan-17 10:33 39.885563 -104.561991 77 7523ft 208kts
11-Jan-17 10:34 39.899306 -104.490634 77 9513ft 200kts
11-Jan-17 10:35 39.917986 -104.426903 35 11499ft 189kts
11-Jan-17 10:36 39.962744 -104.388892 31 12999ft 205kts
11-Jan-17 10:37 40.020636 -104.379086 346 13950ft 222kts
11-Jan-17 10:38 40.076158 -104.399299 312 14826ft 204kts
11-Jan-17 10:39 40.121989 -104.442136 311 15662ft 207kts
11-Jan-17 10:40 40.168106 -104.485959 311 16491ft 205kts
11-Jan-17 10:41 40.225330 -104.506206 348 16988ft 251kts
11-Jan-17 10:42 40.295667 -104.500724 353 16981ft 255kts
11-Jan-17 10:43 40.360263 -104.445834 22 16988ft 283kts
11-Jan-17 10:44 40.423011 -104.384974 22 17045ft 280kts
11-Jan-17 10:45 40.484734 -104.325933 22 17030ft 276kts
11-Jan-17 10:46 40.546609 -104.266813 22 17031ft 275kts
11-Jan-17 10:47 40.610219 -104.218661 8 17031ft 258kts
11-Jan-17 10:48 40.676064 -104.181895 8 17032ft 258kts
11-Jan-17 10:49 40.742078 -104.144726 8 17032ft 259kts
11-Jan-17 10:50 40.807915 -104.107546 8 17032ft 259kts
11-Jan-17 10:51 40.873819 -104.070238 8 17032ft 259kts
11-Jan-17 10:52 40.939813 -104.032796 8 17033ft 259kts
11-Jan-17 10:53 41.005455 -103.995472 8 17036ft 259kts
11-Jan-17 10:54 41.071974 -103.957621 8 17063ft 263kts
11-Jan-17 10:55 41.136224 -103.920787 8 16197ft 251kts
11-Jan-17 10:56 41.200935 -103.883982 9 14269ft 258kts
11-Jan-17 10:57 41.265946 -103.846747 12 12305ft 252kts
11-Jan-17 10:58 41.328510 -103.811570 24 10313ft 244kts
11-Jan-17 10:59 41.390209 -103.775194 24 8319ft 243kts
11-Jan-17 11:00 41.450679 -103.739347 27 6339ft 238kts
11-Jan-17 11:01 41.509739 -103.699342 27 6739ft 245kts
11-Jan-17 11:02 41.570581 -103.657947 27 7534ft 247kts
11-Jan-17 11:03 41.633351 -103.615156 28 7644ft 262kts
11-Jan-17 11:04 41.698101 -103.571197 28 7129ft 251kts
11-Jan-17 11:05 41.735624 -103.501408 64 5718ft 225kts
11-Jan-17 11:06 41.787949 -103.485886 358 5639ft 197kts
11-Jan-17 11:07 41.823484 -103.521647 309 4834ft 137kts
11-Jan-17 11:08 41.846070 -103.557959 316 4328ft 133kts
11-Jan-17 11:09 41.870141 -103.589197 318 3949ft 74kts
11-Jan-17 11:10 41.872858 -103.594944 246 3955ft 0kts
11-Jan-17 11:11 41.872858 -103.594944 246 3955ft 0kts
11-Jan-17 11:12 41.872858 -103.594944 246 3955ft 0kts
11-Jan-17 11:13 41.872858 -103.594944 246 3955ft 0kts
11-Jan-17 11:14 41.872858 -103.594944 246 3955ft 0kts
11-Jan-17 11:15 41.872858 -103.594944 246 3955ft 0kts
11-Jan-17 11:16 41.872858 -103.594944 246 3955ft 0kts
11-Jan-17 11:17 41.872858 -103.594944 246 3955ft 0kts
11-Jan-17 11:18 41.872858 -103.594944 246 3955ft 0kts
11-Jan-17 11:19 41.869022 -103.590201 132 3947ft 38kts
11-Jan-17 11:20 41.865631 -103.584511 40 3940ft 12kts
11-Jan-17 11:21 41.875812 -103.596863 313 4230ft 164kts
11-Jan-17 11:22 41.914610 -103.600728 69 7414ft 187kts
11-Jan-17 11:23 41.932876 -103.540614 5 8492ft 243kts
11-Jan-17 11:24 42.010094 -103.594096 331 10844ft 210kts

Navigation Log

Ident Type Via Name
Flight plan parsing failed, navigation log unavailable